sensor_id;sensor_type;location;lat;lon;timestamp;pressure;altitude;pressure_sealevel;temperature
73734;BMP280;62039;50.000;9.064;2023-12-28T00:01:59;100261.69;;;5.59
73734;BMP280;62039;50.000;9.064;2023-12-28T00:04:26;100274.66;;;5.59
73734;BMP280;62039;50.000;9.064;2023-12-28T00:06:56;100272.06;;;5.59
73734;BMP280;62039;50.000;9.064;2023-12-28T00:09:23;100284.31;;;5.57
73734;BMP280;62039;50.000;9.064;2023-12-28T00:11:50;100292.09;;;5.57
73734;BMP280;62039;50.000;9.064;2023-12-28T00:14:17;100281.72;;;5.57
73734;BMP280;62039;50.000;9.064;2023-12-28T00:16:44;100278.44;;;5.55
73734;BMP280;62039;50.000;9.064;2023-12-28T00:19:11;100283.59;;;5.55
73734;BMP280;62039;50.000;9.064;2023-12-28T00:21:38;100278.44;;;5.55
73734;BMP280;62039;50.000;9.064;2023-12-28T00:24:08;100280.06;;;5.56
73734;BMP280;62039;50.000;9.064;2023-12-28T00:26:35;100278.44;;;5.55
73734;BMP280;62039;50.000;9.064;2023-12-28T00:29:01;100272.41;;;5.55
73734;BMP280;62039;50.000;9.064;2023-12-28T00:31:28;100264.78;;;5.53
73734;BMP280;62039;50.000;9.064;2023-12-28T00:33:56;100270.81;;;5.54
73734;BMP280;62039;50.000;9.064;2023-12-28T00:36:23;100260.44;;;5.54
73734;BMP280;62039;50.000;9.064;2023-12-28T00:38:50;100263.16;;;5.52
73734;BMP280;62039;50.000;9.064;2023-12-28T00:41:19;100269.97;;;5.53
73734;BMP280;62039;50.000;9.064;2023-12-28T00:43:46;100256.31;;;5.51
73734;BMP280;62039;50.000;9.064;2023-12-28T00:46:13;100263.28;;;5.51
73734;BMP280;62039;50.000;9.064;2023-12-28T00:48:40;100265.03;;;5.50
73734;BMP280;62039;50.000;9.064;2023-12-28T00:51:07;100272.81;;;5.50
73734;BMP280;62039;50.000;9.064;2023-12-28T00:53:34;100269.41;;;5.49
73734;BMP280;62039;50.000;9.064;2023-12-28T00:56:01;100280.59;;;5.50
73734;BMP280;62039;50.000;9.064;2023-12-28T00:58:30;100274.59;;;5.49
73734;BMP280;62039;50.000;9.064;2023-12-28T01:00:57;100273.75;;;5.49
73734;BMP280;62039;50.000;9.064;2023-12-28T01:03:24;100273.63;;;5.51
73734;BMP280;62039;50.000;9.064;2023-12-28T01:05:52;100271.88;;;5.51
73734;BMP280;62039;50.000;9.064;2023-12-28T01:08:19;100277.06;;;5.51
73734;BMP280;62039;50.000;9.064;2023-12-28T01:10:46;100278.69;;;5.52
73734;BMP280;62039;50.000;9.064;2023-12-28T01:13:13;100274.34;;;5.53
73734;BMP280;62039;50.000;9.064;2023-12-28T01:15:42;100283.88;;;5.52
73734;BMP280;62039;50.000;9.064;2023-12-28T01:18:10;100290.13;;;5.49
73734;BMP280;62039;50.000;9.064;2023-12-28T01:20:37;100288.25;;;5.52
73734;BMP280;62039;50.000;9.064;2023-12-28T01:23:04;100281.28;;;5.52
73734;BMP280;62039;50.000;9.064;2023-12-28T01:25:30;100280.34;;;5.53
73734;BMP280;62039;50.000;9.064;2023-12-28T01:27:57;100280.19;;;5.55
73734;BMP280;62039;50.000;9.064;2023-12-28T01:30:25;100281.00;;;5.55
73734;BMP280;62039;50.000;9.064;2023-12-28T01:32:54;100272.88;;;5.60
73734;BMP280;62039;50.000;9.064;2023-12-28T01:35:21;100270.13;;;5.61
73734;BMP280;62039;50.000;9.064;2023-12-28T01:37:48;100270.59;;;5.66
73734;BMP280;62039;50.000;9.064;2023-12-28T01:40:16;100292.69;;;5.70
73734;BMP280;62039;50.000;9.064;2023-12-28T01:42:42;100296.53;;;5.76
73734;BMP280;62039;50.000;9.064;2023-12-28T01:45:10;100309.13;;;5.80
73734;BMP280;62039;50.000;9.064;2023-12-28T01:47:37;100300.94;;;5.85
73734;BMP280;62039;50.000;9.064;2023-12-28T01:50:08;100293.47;;;5.92
73734;BMP280;62039;50.000;9.064;2023-12-28T01:52:35;100302.63;;;5.96
73734;BMP280;62039;50.000;9.064;2023-12-28T01:55:04;100303.75;;;6.03
73734;BMP280;62039;50.000;9.064;2023-12-28T01:57:31;100306.63;;;6.09
73734;BMP280;62039;50.000;9.064;2023-12-28T01:59:58;100321.81;;;6.14
73734;BMP280;62039;50.000;9.064;2023-12-28T02:02:26;100318.69;;;6.20
73734;BMP280;62039;50.000;9.064;2023-12-28T02:04:53;100324.19;;;6.26
73734;BMP280;62039;50.000;9.064;2023-12-28T02:07:24;100328.72;;;6.34
73734;BMP280;62039;50.000;9.064;2023-12-28T02:09:51;100323.84;;;6.41
73734;BMP280;62039;50.000;9.064;2023-12-28T02:12:18;100319.78;;;6.48
73734;BMP280;62039;50.000;9.064;2023-12-28T02:14:45;100311.28;;;6.55
73734;BMP280;62039;50.000;9.064;2023-12-28T02:17:15;100322.78;;;6.62
73734;BMP280;62039;50.000;9.064;2023-12-28T02:19:49;100329.91;;;6.70
73734;BMP280;62039;50.000;9.064;2023-12-28T02:22:16;100321.44;;;6.78
73734;BMP280;62039;50.000;9.064;2023-12-28T02:25:05;100324.19;;;6.86
73734;BMP280;62039;50.000;9.064;2023-12-28T02:27:33;100331.28;;;6.93
73734;BMP280;62039;50.000;9.064;2023-12-28T02:30:00;100339.22;;;7.01
73734;BMP280;62039;50.000;9.064;2023-12-28T02:32:35;100331.56;;;7.10
73734;BMP280;62039;50.000;9.064;2023-12-28T02:35:14;100329.22;;;7.16
73734;BMP280;62039;50.000;9.064;2023-12-28T02:37:43;100315.53;;;7.24
73734;BMP280;62039;50.000;9.064;2023-12-28T02:40:14;100323.59;;;7.30
73734;BMP280;62039;50.000;9.064;2023-12-28T02:42:42;100329.06;;;7.37
73734;BMP280;62039;50.000;9.064;2023-12-28T02:45:09;100324.97;;;7.44
73734;BMP280;62039;50.000;9.064;2023-12-28T02:47:36;100323.56;;;7.50
73734;BMP280;62039;50.000;9.064;2023-12-28T02:50:04;100330.88;;;7.56
73734;BMP280;62039;50.000;9.064;2023-12-28T02:52:31;100335.50;;;7.62
73734;BMP280;62039;50.000;9.064;2023-12-28T02:54:58;100337.53;;;7.68
73734;BMP280;62039;50.000;9.064;2023-12-28T02:57:28;100338.63;;;7.75
73734;BMP280;62039;50.000;9.064;2023-12-28T02:59:55;100344.22;;;7.80
73734;BMP280;62039;50.000;9.064;2023-12-28T03:02:22;100341.88;;;7.87
73734;BMP280;62039;50.000;9.064;2023-12-28T03:04:49;100347.59;;;7.90
73734;BMP280;62039;50.000;9.064;2023-12-28T03:07:16;100349.91;;;7.93
73734;BMP280;62039;50.000;9.064;2023-12-28T03:09:42;100366.72;;;7.99
73734;BMP280;62039;50.000;9.064;2023-12-28T03:12:09;100369.88;;;8.02
73734;BMP280;62039;50.000;9.064;2023-12-28T03:14:39;100361.09;;;8.03
73734;BMP280;62039;50.000;9.064;2023-12-28T03:17:06;100340.97;;;8.05
73734;BMP280;62039;50.000;9.064;2023-12-28T03:19:33;100351.91;;;8.09
73734;BMP280;62039;50.000;9.064;2023-12-28T03:22:00;100349.84;;;8.12
73734;BMP280;62039;50.000;9.064;2023-12-28T03:24:27;100350.38;;;8.16
73734;BMP280;62039;50.000;9.064;2023-12-28T03:26:54;100361.31;;;8.19
73734;BMP280;62039;50.000;9.064;2023-12-28T03:29:21;100361.03;;;8.22
73734;BMP280;62039;50.000;9.064;2023-12-28T03:31:50;100366.75;;;8.26
73734;BMP280;62039;50.000;9.064;2023-12-28T03:34:17;100349.22;;;8.28
73734;BMP280;62039;50.000;9.064;2023-12-28T03:36:44;100340.03;;;8.34
73734;BMP280;62039;50.000;9.064;2023-12-28T03:39:11;100336.31;;;8.36
73734;BMP280;62039;50.000;9.064;2023-12-28T03:41:38;100347.38;;;8.38
73734;BMP280;62039;50.000;9.064;2023-12-28T03:44:05;100362.72;;;8.41
73734;BMP280;62039;50.000;9.064;2023-12-28T03:46:32;100370.41;;;8.43
73734;BMP280;62039;50.000;9.064;2023-12-28T03:49:02;100361.59;;;8.44
73734;BMP280;62039;50.000;9.064;2023-12-28T03:51:29;100353.66;;;8.45
73734;BMP280;62039;50.000;9.064;2023-12-28T03:53:56;100345.69;;;8.47
73734;BMP280;62039;50.000;9.064;2023-12-28T03:56:24;100354.19;;;8.49
73734;BMP280;62039;50.000;9.064;2023-12-28T03:58:51;100363.66;;;8.50
73734;BMP280;62039;50.000;9.064;2023-12-28T04:01:19;100370.47;;;8.51
73734;BMP280;62039;50.000;9.064;2023-12-28T04:03:46;100377.19;;;8.53
73734;BMP280;62039;50.000;9.064;2023-12-28T04:06:16;100365.66;;;8.56
73734;BMP280;62039;50.000;9.064;2023-12-28T04:08:43;100376.72;;;8.58
73734;BMP280;62039;50.000;9.064;2023-12-28T04:11:10;100377.56;;;8.58
73734;BMP280;62039;50.000;9.064;2023-12-28T04:13:37;100374.13;;;8.58
73734;BMP280;62039;50.000;9.064;2023-12-28T04:16:05;100402.78;;;8.58
73734;BMP280;62039;50.000;9.064;2023-12-28T04:18:32;100387.88;;;8.60
73734;BMP280;62039;50.000;9.064;2023-12-28T04:20:59;100377.44;;;8.60
73734;BMP280;62039;50.000;9.064;2023-12-28T04:23:29;100381.56;;;8.62
73734;BMP280;62039;50.000;9.064;2023-12-28T04:25:58;100378.28;;;8.60
73734;BMP280;62039;50.000;9.064;2023-12-28T04:28:25;100377.44;;;8.60
73734;BMP280;62039;50.000;9.064;2023-12-28T04:30:52;100380.06;;;8.60
73734;BMP280;62039;50.000;9.064;2023-12-28T04:33:19;100375.78;;;8.59
73734;BMP280;62039;50.000;9.064;2023-12-28T04:35:46;100369.75;;;8.58
73734;BMP280;62039;50.000;9.064;2023-12-28T04:38:13;100367.97;;;8.59
73734;BMP280;62039;50.000;9.064;2023-12-28T04:40:42;100364.53;;;8.58
73734;BMP280;62039;50.000;9.064;2023-12-28T04:43:09;100362.75;;;8.59
73734;BMP280;62039;50.000;9.064;2023-12-28T04:45:36;100361.94;;;8.58
73734;BMP280;62039;50.000;9.064;2023-12-28T04:48:04;100359.31;;;8.58
73734;BMP280;62039;50.000;9.064;2023-12-28T04:50:32;100362.75;;;8.59
73734;BMP280;62039;50.000;9.064;2023-12-28T04:52:59;100348.09;;;8.58
73734;BMP280;62039;50.000;9.064;2023-12-28T04:55:26;100344.66;;;8.57
73734;BMP280;62039;50.000;9.064;2023-12-28T04:57:55;100367.97;;;8.59
73734;BMP280;62039;50.000;9.064;2023-12-28T05:00:23;100350.69;;;8.58
73734;BMP280;62039;50.000;9.064;2023-12-28T05:02:50;100372.25;;;8.60
73734;BMP280;62039;50.000;9.064;2023-12-28T05:05:17;100367.72;;;8.62
73734;BMP280;62039;50.000;9.064;2023-12-28T05:07:44;100362.34;;;8.63
73734;BMP280;62039;50.000;9.064;2023-12-28T05:10:11;100383.16;;;8.63
73734;BMP280;62039;50.000;9.064;2023-12-28T05:12:37;100377.31;;;8.61
73734;BMP280;62039;50.000;9.064;2023-12-28T05:15:13;100388.69;;;8.60
73734;BMP280;62039;50.000;9.064;2023-12-28T05:17:40;100380.06;;;8.60
73734;BMP280;62039;50.000;9.064;2023-12-28T05:20:08;100389.50;;;8.61
73734;BMP280;62039;50.000;9.064;2023-12-28T05:22:35;100408.41;;;8.63
73734;BMP280;62039;50.000;9.064;2023-12-28T05:25:02;100412.63;;;8.64
73734;BMP280;62039;50.000;9.064;2023-12-28T05:27:29;100420.44;;;8.64
73734;BMP280;62039;50.000;9.064;2023-12-28T05:29:56;100417.72;;;8.66
73734;BMP280;62039;50.000;9.064;2023-12-28T05:32:26;100416.88;;;8.65
73734;BMP280;62039;50.000;9.064;2023-12-28T05:34:53;100422.09;;;8.65
73734;BMP280;62039;50.000;9.064;2023-12-28T05:37:19;100420.19;;;8.67
73734;BMP280;62039;50.000;9.064;2023-12-28T05:39:46;100428.69;;;8.69
73734;BMP280;62039;50.000;9.064;2023-12-28T05:42:13;100430.31;;;8.70
73734;BMP280;62039;50.000;9.064;2023-12-28T05:44:40;100427.53;;;8.72
73734;BMP280;62039;50.000;9.064;2023-12-28T05:47:07;100435.22;;;8.73
73734;BMP280;62039;50.000;9.064;2023-12-28T05:49:37;100434.25;;;8.74
73734;BMP280;62039;50.000;9.064;2023-12-28T05:52:04;100422.06;;;8.75
73734;BMP280;62039;50.000;9.064;2023-12-28T05:54:31;100435.09;;;8.75
73734;BMP280;62039;50.000;9.064;2023-12-28T05:56:58;100432.47;;;8.75
73734;BMP280;62039;50.000;9.064;2023-12-28T05:59:25;100433.28;;;8.75
73734;BMP280;62039;50.000;9.064;2023-12-28T06:01:52;100441.25;;;8.74
73734;BMP280;62039;50.000;9.064;2023-12-28T06:04:19;100422.34;;;8.72
73734;BMP280;62039;50.000;9.064;2023-12-28T06:06:49;100430.31;;;8.70
73734;BMP280;62039;50.000;9.064;2023-12-28T06:09:16;100431.94;;;8.71
73734;BMP280;62039;50.000;9.064;2023-12-28T06:11:43;100432.63;;;8.73
73734;BMP280;62039;50.000;9.064;2023-12-28T06:14:10;100436.88;;;8.74
73734;BMP280;62039;50.000;9.064;2023-12-28T06:16:37;100430.84;;;8.74
73734;BMP280;62039;50.000;9.064;2023-12-28T06:19:03;100427.13;;;8.76
73734;BMP280;62039;50.000;9.064;2023-12-28T06:21:31;100420.94;;;8.77
73734;BMP280;62039;50.000;9.064;2023-12-28T06:24:00;100411.31;;;8.78
73734;BMP280;62039;50.000;9.064;2023-12-28T06:26:27;100409.53;;;8.78
73734;BMP280;62039;50.000;9.064;2023-12-28T06:28:54;100411.06;;;8.81
73734;BMP280;62039;50.000;9.064;2023-12-28T06:31:21;100403.91;;;8.83
73734;BMP280;62039;50.000;9.064;2023-12-28T06:33:48;100408.00;;;8.85
73734;BMP280;62039;50.000;9.064;2023-12-28T06:36:17;100412.09;;;8.88
73734;BMP280;62039;50.000;9.064;2023-12-28T06:38:44;100412.94;;;8.88
73734;BMP280;62039;50.000;9.064;2023-12-28T06:41:14;100404.16;;;8.89
73734;BMP280;62039;50.000;9.064;2023-12-28T06:43:41;100408.53;;;8.89
73734;BMP280;62039;50.000;9.064;2023-12-28T06:46:08;100410.97;;;8.90
73734;BMP280;62039;50.000;9.064;2023-12-28T06:48:34;100422.22;;;8.91
73734;BMP280;62039;50.000;9.064;2023-12-28T06:51:02;100414.56;;;8.89
73734;BMP280;62039;50.000;9.064;2023-12-28T06:53:29;100418.78;;;8.90
73734;BMP280;62039;50.000;9.064;2023-12-28T06:55:56;100411.78;;;8.91
73734;BMP280;62039;50.000;9.064;2023-12-28T06:58:25;100410.69;;;8.93
73734;BMP280;62039;50.000;9.064;2023-12-28T07:00:52;100414.94;;;8.94
73734;BMP280;62039;50.000;9.064;2023-12-28T07:03:19;100410.41;;;8.96
73734;BMP280;62039;50.000;9.064;2023-12-28T07:05:46;100415.63;;;8.96
73734;BMP280;62039;50.000;9.064;2023-12-28T07:08:13;100411.22;;;8.97
73734;BMP280;62039;50.000;9.064;2023-12-28T07:10:40;100420.84;;;8.96
73734;BMP280;62039;50.000;9.064;2023-12-28T07:13:07;100419.19;;;8.95
73734;BMP280;62039;50.000;9.064;2023-12-28T07:15:37;100407.13;;;8.94
73734;BMP280;62039;50.000;9.064;2023-12-28T07:18:04;100412.34;;;8.94
73734;BMP280;62039;50.000;9.064;2023-12-28T07:20:31;100421.13;;;8.93
73734;BMP280;62039;50.000;9.064;2023-12-28T07:22:58;100427.28;;;8.92
73734;BMP280;62039;50.000;9.064;2023-12-28T07:25:25;100427.28;;;8.92
73734;BMP280;62039;50.000;9.064;2023-12-28T07:27:52;100431.69;;;8.92
73734;BMP280;62039;50.000;9.064;2023-12-28T07:30:19;100443.06;;;8.91
73734;BMP280;62039;50.000;9.064;2023-12-28T07:32:49;100445.53;;;8.92
73734;BMP280;62039;50.000;9.064;2023-12-28T07:35:17;100448.00;;;8.94
73734;BMP280;62039;50.000;9.064;2023-12-28T07:37:44;100448.81;;;8.94
73734;BMP280;62039;50.000;9.064;2023-12-28T07:40:12;100444.28;;;8.96
73734;BMP280;62039;50.000;9.064;2023-12-28T07:42:39;100453.72;;;8.97
73734;BMP280;62039;50.000;9.064;2023-12-28T07:45:07;100455.22;;;9.00
73734;BMP280;62039;50.000;9.064;2023-12-28T07:47:34;100460.44;;;9.00
73734;BMP280;62039;50.000;9.064;2023-12-28T07:50:04;100464.69;;;9.01
73734;BMP280;62039;50.000;9.064;2023-12-28T07:52:31;100478.53;;;9.01
73734;BMP280;62039;50.000;9.064;2023-12-28T07:54:58;100476.59;;;9.03
73734;BMP280;62039;50.000;9.064;2023-12-28T07:57:25;100473.00;;;9.04
73734;BMP280;62039;50.000;9.064;2023-12-28T07:59:52;100469.44;;;9.06
73734;BMP280;62039;50.000;9.064;2023-12-28T08:02:19;100478.78;;;9.08
73734;BMP280;62039;50.000;9.064;2023-12-28T08:04:47;100484.66;;;9.10
73734;BMP280;62039;50.000;9.064;2023-12-28T08:07:17;100475.03;;;9.11
73734;BMP280;62039;50.000;9.064;2023-12-28T08:09:44;100478.63;;;9.10
73734;BMP280;62039;50.000;9.064;2023-12-28T08:12:11;100479.28;;;9.12
73734;BMP280;62039;50.000;9.064;2023-12-28T08:14:38;100467.06;;;9.12
73734;BMP280;62039;50.000;9.064;2023-12-28T08:17:08;100468.72;;;9.13
73734;BMP280;62039;50.000;9.064;2023-12-28T08:19:35;100472.00;;;9.15
73734;BMP280;62039;50.000;9.064;2023-12-28T08:22:02;100477.91;;;9.17
73734;BMP280;62039;50.000;9.064;2023-12-28T08:24:32;100478.56;;;9.19
73734;BMP280;62039;50.000;9.064;2023-12-28T08:26:59;100474.16;;;9.20
73734;BMP280;62039;50.000;9.064;2023-12-28T08:29:26;100471.41;;;9.21
73734;BMP280;62039;50.000;9.064;2023-12-28T08:31:53;100467.84;;;9.22
73734;BMP280;62039;50.000;9.064;2023-12-28T08:34:20;100471.28;;;9.23
73734;BMP280;62039;50.000;9.064;2023-12-28T08:36:47;100473.56;;;9.26
73734;BMP280;62039;50.000;9.064;2023-12-28T08:39:14;100485.63;;;9.27
73734;BMP280;62039;50.000;9.064;2023-12-28T08:41:44;100477.69;;;9.28
73734;BMP280;62039;50.000;9.064;2023-12-28T08:44:11;100478.50;;;9.29
73734;BMP280;62039;50.000;9.064;2023-12-28T08:46:38;100483.72;;;9.29
73734;BMP280;62039;50.000;9.064;2023-12-28T08:49:05;100479.16;;;9.31
73734;BMP280;62039;50.000;9.064;2023-12-28T08:51:32;100474.75;;;9.31
73734;BMP280;62039;50.000;9.064;2023-12-28T08:53:59;100474.63;;;9.33
73734;BMP280;62039;50.000;9.064;2023-12-28T08:56:26;100471.03;;;9.34
73734;BMP280;62039;50.000;9.064;2023-12-28T08:58:55;100457.88;;;9.35
73734;BMP280;62039;50.000;9.064;2023-12-28T09:01:23;100470.22;;;9.33
73734;BMP280;62039;50.000;9.064;2023-12-28T09:03:51;100469.53;;;9.31
73734;BMP280;62039;50.000;9.064;2023-12-28T09:06:19;100460.91;;;9.31
73734;BMP280;62039;50.000;9.064;2023-12-28T09:08:50;100463.50;;;9.31
73734;BMP280;62039;50.000;9.064;2023-12-28T09:11:18;100460.91;;;9.31
73734;BMP280;62039;50.000;9.064;2023-12-28T09:13:45;100472.31;;;9.30
73734;BMP280;62039;50.000;9.064;2023-12-28T09:16:15;100462.53;;;9.32
73734;BMP280;62039;50.000;9.064;2023-12-28T09:18:42;100456.38;;;9.33
73734;BMP280;62039;50.000;9.064;2023-12-28T09:21:10;100462.25;;;9.35
73734;BMP280;62039;50.000;9.064;2023-12-28T09:23:38;100472.53;;;9.36
73734;BMP280;62039;50.000;9.064;2023-12-28T09:26:05;100474.97;;;9.38
73734;BMP280;62039;50.000;9.064;2023-12-28T09:28:33;100478.41;;;9.38
73734;BMP280;62039;50.000;9.064;2023-12-28T09:31:00;100481.00;;;9.38
73734;BMP280;62039;50.000;9.064;2023-12-28T09:33:30;100479.41;;;9.37
73734;BMP280;62039;50.000;9.064;2023-12-28T09:35:58;100488.03;;;9.38
73734;BMP280;62039;50.000;9.064;2023-12-28T09:38:25;100487.06;;;9.39
73734;BMP280;62039;50.000;9.064;2023-12-28T09:40:53;100491.31;;;9.40
73734;BMP280;62039;50.000;9.064;2023-12-28T09:43:22;100480.88;;;9.40
73734;BMP280;62039;50.000;9.064;2023-12-28T09:45:50;100486.41;;;9.37
73734;BMP280;62039;50.000;9.064;2023-12-28T09:48:17;100482.28;;;9.34
73734;BMP280;62039;50.000;9.064;2023-12-28T09:50:49;100480.50;;;9.35
73734;BMP280;62039;50.000;9.064;2023-12-28T09:53:15;100484.75;;;9.36
73734;BMP280;62039;50.000;9.064;2023-12-28T09:55:42;100482.81;;;9.38
73734;BMP280;62039;50.000;9.064;2023-12-28T09:58:11;100491.31;;;9.40
73734;BMP280;62039;50.000;9.064;2023-12-28T10:00:43;100503.25;;;9.42
73734;BMP280;62039;50.000;9.064;2023-12-28T10:03:12;100500.50;;;9.44
73734;BMP280;62039;50.000;9.064;2023-12-28T10:05:40;100494.97;;;9.47
73734;BMP280;62039;50.000;9.064;2023-12-28T10:08:10;100502.50;;;9.50
73734;BMP280;62039;50.000;9.064;2023-12-28T10:10:37;100498.91;;;9.51
73734;BMP280;62039;50.000;9.064;2023-12-28T10:13:06;100499.59;;;9.53
73734;BMP280;62039;50.000;9.064;2023-12-28T10:15:33;100495.03;;;9.55
73734;BMP280;62039;50.000;9.064;2023-12-28T10:18:01;100510.69;;;9.55
73734;BMP280;62039;50.000;9.064;2023-12-28T10:20:28;100504.66;;;9.55
73734;BMP280;62039;50.000;9.064;2023-12-28T10:22:55;100500.25;;;9.55
73734;BMP280;62039;50.000;9.064;2023-12-28T10:25:25;100502.72;;;9.57
73734;BMP280;62039;50.000;9.064;2023-12-28T10:27:52;100503.53;;;9.57
73734;BMP280;62039;50.000;9.064;2023-12-28T10:30:20;100508.44;;;9.60
73734;BMP280;62039;50.000;9.064;2023-12-28T10:32:48;100498.97;;;9.59
73734;BMP280;62039;50.000;9.064;2023-12-28T10:35:15;100510.13;;;9.61
73734;BMP280;62039;50.000;9.064;2023-12-28T10:37:43;100509.16;;;9.62
73734;BMP280;62039;50.000;9.064;2023-12-28T10:40:13;100514.22;;;9.64
73734;BMP280;62039;50.000;9.064;2023-12-28T10:42:49;100506.41;;;9.64
73734;BMP280;62039;50.000;9.064;2023-12-28T10:45:18;100518.63;;;9.63
73734;BMP280;62039;50.000;9.064;2023-12-28T10:47:49;100504.91;;;9.61
73734;BMP280;62039;50.000;9.064;2023-12-28T10:50:19;100507.94;;;9.57
73734;BMP280;62039;50.000;9.064;2023-12-28T10:52:50;100500.25;;;9.55
73734;BMP280;62039;50.000;9.064;2023-12-28T10:55:30;100505.47;;;9.55
73734;BMP280;62039;50.000;9.064;2023-12-28T10:58:10;100499.44;;;9.55
73734;BMP280;62039;50.000;9.064;2023-12-28T11:00:43;100487.22;;;9.55
73734;BMP280;62039;50.000;9.064;2023-12-28T11:03:11;100492.28;;;9.57
73734;BMP280;62039;50.000;9.064;2023-12-28T11:05:43;100485.94;;;9.59
73734;BMP280;62039;50.000;9.064;2023-12-28T11:08:12;100483.06;;;9.62
73734;BMP280;62039;50.000;9.064;2023-12-28T11:10:41;100482.94;;;9.64
73734;BMP280;62039;50.000;9.064;2023-12-28T11:13:12;100481.50;;;9.69
73734;BMP280;62039;50.000;9.064;2023-12-28T11:15:40;100462.28;;;9.70
73734;BMP280;62039;50.000;9.064;2023-12-28T11:18:08;100473.22;;;9.74
73734;BMP280;62039;50.000;9.064;2023-12-28T11:20:35;100473.91;;;9.76
73734;BMP280;62039;50.000;9.064;2023-12-28T11:23:03;100478.97;;;9.77
73734;BMP280;62039;50.000;9.064;2023-12-28T11:25:31;100478.16;;;9.77
73734;BMP280;62039;50.000;9.064;2023-12-28T11:27:59;100481.41;;;9.79
73734;BMP280;62039;50.000;9.064;2023-12-28T11:30:29;100482.22;;;9.79
73734;BMP280;62039;50.000;9.064;2023-12-28T11:32:56;100485.66;;;9.80
73734;BMP280;62039;50.000;9.064;2023-12-28T11:35:33;100487.16;;;9.83
73734;BMP280;62039;50.000;9.064;2023-12-28T11:38:01;100479.34;;;9.83
73734;BMP280;62039;50.000;9.064;2023-12-28T11:40:29;100473.16;;;9.84
73734;BMP280;62039;50.000;9.064;2023-12-28T11:42:56;100475.91;;;9.82
73734;BMP280;62039;50.000;9.064;2023-12-28T11:45:24;100474.94;;;9.83
73734;BMP280;62039;50.000;9.064;2023-12-28T11:48:03;100472.31;;;9.83
73734;BMP280;62039;50.000;9.064;2023-12-28T11:50:31;100461.88;;;9.83
73734;BMP280;62039;50.000;9.064;2023-12-28T11:52:58;100459.13;;;9.85
73734;BMP280;62039;50.000;9.064;2023-12-28T11:55:25;100467.59;;;9.87
73734;BMP280;62039;50.000;9.064;2023-12-28T11:57:52;100460.75;;;9.86
73734;BMP280;62039;50.000;9.064;2023-12-28T12:00:19;100456.53;;;9.85
73734;BMP280;62039;50.000;9.064;2023-12-28T12:02:46;100449.66;;;9.84
73734;BMP280;62039;50.000;9.064;2023-12-28T12:05:17;100454.19;;;9.81
73734;BMP280;62039;50.000;9.064;2023-12-28T12:07:44;100445.69;;;9.79
73734;BMP280;62039;50.000;9.064;2023-12-28T12:10:15;100445.69;;;9.79
73734;BMP280;62039;50.000;9.064;2023-12-28T12:12:42;100444.88;;;9.79
73734;BMP280;62039;50.000;9.064;2023-12-28T12:15:09;100434.63;;;9.77
73734;BMP280;62039;50.000;9.064;2023-12-28T12:17:37;100421.41;;;9.79
73734;BMP280;62039;50.000;9.064;2023-12-28T12:20:05;100421.25;;;9.80
73734;BMP280;62039;50.000;9.064;2023-12-28T12:22:35;100412.31;;;9.83
73734;BMP280;62039;50.000;9.064;2023-12-28T12:25:03;100416.38;;;9.86
73734;BMP280;62039;50.000;9.064;2023-12-28T12:27:32;100419.66;;;9.88
73734;BMP280;62039;50.000;9.064;2023-12-28T12:29:59;100415.13;;;9.90
73734;BMP280;62039;50.000;9.064;2023-12-28T12:32:26;100407.94;;;9.92
73734;BMP280;62039;50.000;9.064;2023-12-28T12:34:54;100406.00;;;9.94
73734;BMP280;62039;50.000;9.064;2023-12-28T12:37:21;100407.34;;;9.98
73734;BMP280;62039;50.000;9.064;2023-12-28T12:39:51;100397.41;;;10.01
73734;BMP280;62039;50.000;9.064;2023-12-28T12:42:19;100399.56;;;10.06
73734;BMP280;62039;50.000;9.064;2023-12-28T12:44:46;100386.06;;;10.10
73734;BMP280;62039;50.000;9.064;2023-12-28T12:47:13;100390.94;;;10.13
73734;BMP280;62039;50.000;9.064;2023-12-28T12:49:40;100385.44;;;10.16
73734;BMP280;62039;50.000;9.064;2023-12-28T12:52:07;100381.66;;;10.19
73734;BMP280;62039;50.000;9.064;2023-12-28T12:54:34;100379.72;;;10.21
73734;BMP280;62039;50.000;9.064;2023-12-28T12:57:05;100397.84;;;10.23
73734;BMP280;62039;50.000;9.064;2023-12-28T12:59:32;100389.22;;;10.22
73734;BMP280;62039;50.000;9.064;2023-12-28T13:02:00;100374.38;;;10.23
73734;BMP280;62039;50.000;9.064;2023-12-28T13:04:27;100379.44;;;10.24
73734;BMP280;62039;50.000;9.064;2023-12-28T13:06:54;100374.84;;;10.26
73734;BMP280;62039;50.000;9.064;2023-12-28T13:09:21;100370.31;;;10.28
73734;BMP280;62039;50.000;9.064;2023-12-28T13:11:48;100363.00;;;10.32
73734;BMP280;62039;50.000;9.064;2023-12-28T13:14:18;100351.41;;;10.34
73734;BMP280;62039;50.000;9.064;2023-12-28T13:16:45;100344.22;;;10.36
73734;BMP280;62039;50.000;9.064;2023-12-28T13:19:12;100350.75;;;10.40
73734;BMP280;62039;50.000;9.064;2023-12-28T13:21:39;100351.09;;;10.45
73734;BMP280;62039;50.000;9.064;2023-12-28T13:24:06;100351.75;;;10.47
73734;BMP280;62039;50.000;9.064;2023-12-28T13:26:33;100350.78;;;10.48
73734;BMP280;62039;50.000;9.064;2023-12-28T13:29:00;100366.47;;;10.48
73734;BMP280;62039;50.000;9.064;2023-12-28T13:31:34;100363.03;;;10.48
73734;BMP280;62039;50.000;9.064;2023-12-28T13:34:01;100357.13;;;10.46
73734;BMP280;62039;50.000;9.064;2023-12-28T13:36:29;100356.97;;;10.47
73734;BMP280;62039;50.000;9.064;2023-12-28T13:38:55;100371.69;;;10.48
73734;BMP280;62039;50.000;9.064;2023-12-28T13:41:22;100362.22;;;10.47
73734;BMP280;62039;50.000;9.064;2023-12-28T13:43:49;100369.06;;;10.48
73734;BMP280;62039;50.000;9.064;2023-12-28T13:46:16;100373.31;;;10.49
73734;BMP280;62039;50.000;9.064;2023-12-28T13:48:46;100367.13;;;10.50
73734;BMP280;62039;50.000;9.064;2023-12-28T13:51:13;100362.06;;;10.49
73734;BMP280;62039;50.000;9.064;2023-12-28T13:53:40;100361.25;;;10.48
73734;BMP280;62039;50.000;9.064;2023-12-28T13:56:08;100370.03;;;10.47
73734;BMP280;62039;50.000;9.064;2023-12-28T13:58:35;100359.75;;;10.46
73734;BMP280;62039;50.000;9.064;2023-12-28T14:01:02;100361.53;;;10.45
73734;BMP280;62039;50.000;9.064;2023-12-28T14:03:29;100358.13;;;10.45
73734;BMP280;62039;50.000;9.064;2023-12-28T14:05:59;100350.47;;;10.43
73734;BMP280;62039;50.000;9.064;2023-12-28T14:08:26;100345.53;;;10.40
73734;BMP280;62039;50.000;9.064;2023-12-28T14:10:53;100350.13;;;10.38